createdAt,value
2023-04-15T00:00:07.169Z,53.87
2023-04-15T00:02:18.821Z,53.78
2023-04-15T00:04:26.411Z,53.78
2023-04-15T00:06:31.303Z,53.71
2023-04-15T00:08:36.227Z,54.02
2023-04-15T00:10:41.052Z,53.89
2023-04-15T00:12:45.909Z,53.92
2023-04-15T00:14:51.285Z,53.99
2023-04-15T00:16:57.434Z,53.78
2023-04-15T00:19:02.609Z,53.78
2023-04-15T00:21:10.204Z,53.82
2023-04-15T00:23:14.976Z,53.74
2023-04-15T00:25:19.800Z,53.62
2023-04-15T00:27:24.495Z,53.73
2023-04-15T00:29:29.711Z,53.75
2023-04-15T00:31:34.709Z,53.78
2023-04-15T00:33:40.280Z,54.00
2023-04-15T00:35:45.113Z,53.76
2023-04-15T00:37:52.419Z,53.84
2023-04-15T00:39:57.368Z,53.79
2023-04-15T00:42:02.378Z,53.99
2023-04-15T00:44:07.197Z,53.63
2023-04-15T00:46:12.922Z,53.84
2023-04-15T00:48:18.796Z,53.68
2023-04-15T00:50:23.737Z,53.84
2023-04-15T00:52:28.607Z,53.86
2023-04-15T00:54:36.635Z,53.88
2023-04-15T00:56:42.838Z,53.76
2023-04-15T00:58:47.937Z,53.99
2023-04-15T01:00:54.529Z,53.75
2023-04-15T01:02:59.394Z,53.67
2023-04-15T01:05:04.364Z,54.04
2023-04-15T01:07:09.380Z,53.85
2023-04-15T01:09:14.875Z,53.93
2023-04-15T01:11:22.574Z,53.64
2023-04-15T01:13:28.276Z,53.77
2023-04-15T01:15:33.301Z,53.99
2023-04-15T01:17:38.333Z,53.67
2023-04-15T01:19:45.546Z,53.88
2023-04-15T01:21:50.891Z,54.11
2023-04-15T01:23:58.586Z,54.17
2023-04-15T01:26:06.514Z,53.82
2023-04-15T01:28:11.365Z,53.94
2023-04-15T01:30:16.399Z,54.10
2023-04-15T01:32:21.303Z,54.19
2023-04-15T01:34:26.533Z,53.97
2023-04-15T01:36:32.770Z,54.13
2023-04-15T01:38:37.780Z,53.93
2023-04-15T01:40:42.514Z,53.88
2023-04-15T01:42:49.984Z,54.06
2023-04-15T01:44:55.015Z,53.86
2023-04-15T01:46:59.984Z,54.17
2023-04-15T01:49:05.232Z,53.94
2023-04-15T01:51:11.564Z,54.09
2023-04-15T01:53:17.076Z,54.06
2023-04-15T01:55:21.914Z,54.00
2023-04-15T01:57:26.619Z,53.88
2023-04-15T01:59:34.247Z,53.97
2023-04-15T02:01:39.104Z,53.91
2023-04-15T02:03:44.270Z,53.90
2023-04-15T02:05:49.357Z,54.06
2023-04-15T02:07:54.168Z,54.24
2023-04-15T02:09:58.864Z,54.23
2023-04-15T02:12:03.716Z,53.98
2023-04-15T02:14:08.636Z,54.25
2023-04-15T02:16:22.003Z,54.44
2023-04-15T02:18:26.637Z,54.19
2023-04-15T02:20:32.365Z,54.27
2023-04-15T02:22:37.804Z,54.32
2023-04-15T02:24:42.568Z,54.33
2023-04-15T02:26:48.349Z,54.05
2023-04-15T02:28:54.075Z,54.21
2023-04-15T02:30:59.979Z,54.35
2023-04-15T02:33:07.991Z,54.34
2023-04-15T02:35:13.490Z,54.30
2023-04-15T02:37:20.545Z,54.26
2023-04-15T02:39:26.047Z,54.21
2023-04-15T02:41:30.807Z,54.27
2023-04-15T02:43:36.497Z,54.11
2023-04-15T02:45:41.444Z,54.29
2023-04-15T02:47:47.546Z,54.07
2023-04-15T02:49:55.444Z,54.15
2023-04-15T02:52:00.958Z,54.22
2023-04-15T02:54:05.856Z,54.28
2023-04-15T02:56:11.889Z,54.33
2023-04-15T02:58:16.670Z,54.09
2023-04-15T03:00:21.798Z,54.22
2023-04-15T03:02:27.565Z,54.17
2023-04-15T03:04:32.584Z,54.23
2023-04-15T03:06:39.945Z,54.29
2023-04-15T03:08:46.906Z,54.32
2023-04-15T03:10:52.572Z,54.16
2023-04-15T03:12:57.367Z,54.04
2023-04-15T03:15:02.464Z,53.97
2023-04-15T03:17:13.802Z,54.00
2023-04-15T03:19:18.803Z,53.96
2023-04-15T03:21:24.159Z,54.32
2023-04-15T03:23:31.872Z,54.04
2023-04-15T03:25:37.543Z,54.18
2023-04-15T03:27:45.103Z,54.15
2023-04-15T03:29:51.805Z,54.14
2023-04-15T03:31:57.651Z,54.15
2023-04-15T03:34:02.664Z,53.86
2023-04-15T03:36:08.057Z,54.10
2023-04-15T03:38:12.755Z,54.06
2023-04-15T03:40:20.109Z,54.01
2023-04-15T03:42:24.860Z,53.93
2023-04-15T03:44:29.693Z,53.85
2023-04-15T03:46:34.412Z,53.61
2023-04-15T03:48:39.156Z,53.84
2023-04-15T03:50:44.270Z,53.92
2023-04-15T03:52:50.731Z,53.58
2023-04-15T03:54:56.175Z,53.75
2023-04-15T03:57:03.665Z,53.71
2023-04-15T03:59:08.338Z,53.62
2023-04-15T04:01:13.020Z,53.67
2023-04-15T04:03:17.832Z,53.51
2023-04-15T04:05:22.911Z,53.66
2023-04-15T04:07:27.628Z,53.99
2023-04-15T04:09:32.681Z,53.88
2023-04-15T04:11:37.798Z,53.85
2023-04-15T04:13:45.149Z,53.83
2023-04-15T04:15:49.892Z,53.63
2023-04-15T04:17:54.765Z,53.73
2023-04-15T04:19:59.619Z,53.59
2023-04-15T04:22:05.231Z,53.79
2023-04-15T04:24:09.944Z,53.53
2023-04-15T04:26:14.675Z,53.77
2023-04-15T04:28:19.319Z,53.81
2023-04-15T04:30:26.644Z,53.68
2023-04-15T04:32:31.683Z,53.72
2023-04-15T04:34:36.790Z,53.50
2023-04-15T04:36:41.631Z,53.57
2023-04-15T04:38:46.535Z,53.62
2023-04-15T04:40:51.396Z,53.64
2023-04-15T04:42:56.398Z,53.54
2023-04-15T04:45:01.259Z,53.52
2023-04-15T04:47:09.404Z,53.71
2023-04-15T04:49:14.222Z,53.60
2023-04-15T04:51:19.044Z,53.45
2023-04-15T04:53:23.753Z,53.56
2023-04-15T04:55:28.542Z,53.73
2023-04-15T04:57:33.312Z,53.57
2023-04-15T04:59:38.339Z,53.50
2023-04-15T05:01:43.193Z,53.34
2023-04-15T05:03:50.782Z,53.66
2023-04-15T05:05:55.522Z,53.37
2023-04-15T05:08:00.313Z,53.70
2023-04-15T05:10:05.179Z,53.45
2023-04-15T05:12:15.079Z,53.63
2023-04-15T05:14:20.787Z,53.25
2023-04-15T05:16:26.649Z,53.27
2023-04-15T05:18:31.345Z,53.59
2023-04-15T05:20:38.713Z,53.42
2023-04-15T05:22:43.431Z,53.53
2023-04-15T05:24:48.287Z,53.16
2023-04-15T05:26:52.990Z,53.23
2023-04-15T05:28:58.144Z,53.44
2023-04-15T05:31:02.898Z,53.35
2023-04-15T05:33:07.873Z,53.15
2023-04-15T05:35:12.891Z,53.44
2023-04-15T05:37:21.049Z,53.51
2023-04-15T05:39:25.796Z,53.61
2023-04-15T05:41:30.533Z,53.54
2023-04-15T05:43:35.201Z,53.33
2023-04-15T05:45:40.010Z,53.63
2023-04-15T05:47:45.098Z,53.54
2023-04-15T05:49:49.882Z,53.34
2023-04-15T05:51:54.678Z,53.42
2023-04-15T05:54:02.098Z,53.60
2023-04-15T05:56:07.641Z,53.35
2023-04-15T05:58:12.783Z,53.57
2023-04-15T06:00:18.363Z,53.64
2023-04-15T06:02:23.148Z,53.61
2023-04-15T06:04:28.281Z,53.69
2023-04-15T06:06:33.588Z,53.65
2023-04-15T06:08:38.530Z,53.69
2023-04-15T06:10:46.286Z,53.84
2023-04-15T06:12:51.115Z,53.87
2023-04-15T06:14:55.894Z,53.49
2023-04-15T06:17:00.652Z,53.55
2023-04-15T06:19:05.472Z,53.90
2023-04-15T06:21:10.147Z,53.90
2023-04-15T06:23:14.909Z,54.00
2023-04-15T06:25:20.085Z,54.05
2023-04-15T06:27:27.549Z,53.97
2023-04-15T06:29:32.303Z,54.08
2023-04-15T06:31:37.595Z,53.90
2023-04-15T06:33:42.440Z,54.16
2023-04-15T06:35:47.637Z,54.12
2023-04-15T06:37:52.380Z,53.93
2023-04-15T06:39:57.275Z,54.22
2023-04-15T06:42:02.223Z,53.86
2023-04-15T06:44:09.950Z,54.17
2023-04-15T06:46:14.861Z,54.10
2023-04-15T06:48:19.777Z,54.30
2023-04-15T06:50:24.676Z,54.27
2023-04-15T06:52:29.500Z,54.19
2023-04-15T06:54:34.305Z,54.30
2023-04-15T06:56:39.145Z,54.25
2023-04-15T06:58:43.799Z,54.31
2023-04-15T07:00:52.221Z,54.27
2023-04-15T07:02:57.271Z,54.57
2023-04-15T07:05:02.191Z,54.41
2023-04-15T07:07:08.217Z,54.39
2023-04-15T07:09:13.003Z,54.40
2023-04-15T07:11:17.721Z,54.71
2023-04-15T07:13:22.609Z,54.66
2023-04-15T07:15:27.360Z,54.51
2023-04-15T07:17:34.724Z,54.78
2023-04-15T07:19:39.494Z,54.97
2023-04-15T07:21:44.225Z,54.75
2023-04-15T07:23:48.933Z,55.02
2023-04-15T07:25:53.801Z,54.63
2023-04-15T07:27:58.526Z,54.67
2023-04-15T07:30:03.524Z,55.06
2023-04-15T07:32:10.657Z,54.92
2023-04-15T07:34:17.998Z,54.71
2023-04-15T07:36:22.755Z,54.85
2023-04-15T07:38:27.568Z,54.97
2023-04-15T07:40:32.513Z,55.14
2023-04-15T07:42:40.754Z,54.79
2023-04-15T07:44:46.232Z,54.93
2023-04-15T07:46:50.996Z,54.65
2023-04-15T07:48:55.748Z,54.87
2023-04-15T07:51:03.755Z,54.84
2023-04-15T07:53:08.569Z,54.90
2023-04-15T07:55:13.465Z,54.84
2023-04-15T07:57:18.165Z,54.61
2023-04-15T07:59:23.147Z,54.33
2023-04-15T08:01:27.808Z,54.33
2023-04-15T08:03:33.296Z,54.67
2023-04-15T08:05:38.250Z,54.48
2023-04-15T08:07:45.684Z,54.66
2023-04-15T08:09:50.708Z,54.42
2023-04-15T08:11:56.840Z,54.32
2023-04-15T08:14:01.822Z,54.30
2023-04-15T08:16:41.875Z,54.66
2023-04-15T08:18:46.665Z,54.48
2023-04-15T08:20:51.454Z,54.27
2023-04-15T08:22:59.300Z,54.31
2023-04-15T08:25:03.955Z,54.68
2023-04-15T08:27:09.047Z,54.61
2023-04-15T08:29:13.809Z,54.44
2023-04-15T08:31:22.779Z,54.57
2023-04-15T08:33:28.992Z,54.53
2023-04-15T08:35:33.677Z,54.95
2023-04-15T08:37:38.425Z,54.87
2023-04-15T08:39:45.809Z,54.60
2023-04-15T08:41:55.244Z,54.83
2023-04-15T08:44:01.588Z,54.74
2023-04-15T08:46:08.371Z,54.47
2023-04-15T08:48:17.686Z,54.41
2023-04-15T08:50:23.917Z,54.62
2023-04-15T08:52:29.263Z,54.84
2023-04-15T08:54:34.173Z,54.63
2023-04-15T08:56:42.780Z,54.66
2023-04-15T08:58:48.035Z,54.60
2023-04-15T09:00:53.086Z,54.19
2023-04-15T09:02:59.806Z,54.54
2023-04-15T09:05:06.680Z,54.24
2023-04-15T09:07:11.693Z,53.99
2023-04-15T09:09:17.188Z,54.41
2023-04-15T09:11:22.482Z,54.05
2023-04-15T09:13:30.267Z,54.14
2023-04-15T09:15:36.290Z,54.09
2023-04-15T09:17:45.881Z,54.01
2023-04-15T09:19:50.874Z,54.15
2023-04-15T09:21:58.926Z,54.21
2023-04-15T09:24:04.727Z,54.44
2023-04-15T09:26:10.822Z,54.31
2023-04-15T09:28:15.949Z,54.50
2023-04-15T09:30:23.525Z,54.22
2023-04-15T09:32:28.293Z,54.24
2023-04-15T09:34:38.739Z,54.48
2023-04-15T09:36:56.344Z,54.19
2023-04-15T09:39:02.347Z,54.53
2023-04-15T09:41:19.860Z,54.60
2023-04-15T09:43:26.261Z,54.60
2023-04-15T09:45:34.266Z,54.31
2023-04-15T09:47:39.158Z,54.45
2023-04-15T09:49:58.556Z,54.43
2023-04-15T09:52:06.496Z,54.65
2023-04-15T09:54:11.679Z,54.52
2023-04-15T09:56:16.430Z,54.06
2023-04-15T09:58:22.202Z,54.03
2023-04-15T10:00:27.107Z,53.88
2023-04-15T10:02:35.524Z,53.75
2023-04-15T10:04:43.976Z,53.58
2023-04-15T10:06:48.852Z,53.73
2023-04-15T10:08:53.861Z,53.66
2023-04-15T10:10:59.244Z,53.60
2023-04-15T10:13:04.308Z,53.37
2023-04-15T10:15:12.515Z,53.52
2023-04-15T10:17:21.194Z,53.39
2023-04-15T10:19:30.510Z,53.40
2023-04-15T10:21:36.352Z,53.21
2023-04-15T10:23:41.731Z,52.97
2023-04-15T10:25:46.632Z,53.10
2023-04-15T10:27:53.006Z,52.82
2023-04-15T10:29:57.891Z,53.07
2023-04-15T10:32:03.513Z,53.03
2023-04-15T10:34:08.926Z,52.68
2023-04-15T10:36:17.095Z,52.61
2023-04-15T10:38:39.007Z,52.52
2023-04-15T10:40:45.520Z,52.64
2023-04-15T10:42:50.338Z,53.01
2023-04-15T10:44:59.733Z,52.52
2023-04-15T10:47:08.300Z,52.91
2023-04-15T10:49:14.469Z,52.72
2023-04-15T10:51:29.960Z,52.48
2023-04-15T10:53:34.709Z,52.78
2023-04-15T10:55:39.731Z,52.91
2023-04-15T10:57:46.089Z,53.01
2023-04-15T11:00:07.251Z,52.85
2023-04-15T11:02:12.019Z,52.77
2023-04-15T11:04:17.081Z,52.78
2023-04-15T11:06:47.122Z,52.86
2023-04-15T11:09:02.783Z,53.04
2023-04-15T11:11:07.933Z,52.98
2023-04-15T11:13:21.488Z,52.83
2023-04-15T11:15:32.722Z,52.68
2023-04-15T11:17:37.754Z,52.64
2023-04-15T11:19:42.574Z,52.86
2023-04-15T11:21:49.983Z,52.27
2023-04-15T11:23:54.744Z,52.30
2023-04-15T11:26:00.305Z,52.59
2023-04-15T11:28:05.820Z,52.64
2023-04-15T11:30:22.766Z,52.10
2023-04-15T11:32:28.862Z,52.44
2023-04-15T11:34:36.197Z,52.52
2023-04-15T11:36:41.543Z,52.43
2023-04-15T11:38:50.318Z,52.21
2023-04-15T11:40:55.091Z,52.27
2023-04-15T11:43:10.865Z,52.07
2023-04-15T11:45:17.414Z,52.19
2023-04-15T11:47:26.766Z,51.99
2023-04-15T11:49:34.170Z,52.33
2023-04-15T11:51:39.236Z,51.90
2023-04-15T11:53:46.264Z,52.00
2023-04-15T11:55:54.477Z,51.77
2023-04-15T11:58:16.545Z,51.88
2023-04-15T12:00:24.017Z,51.79
2023-04-15T12:02:35.156Z,51.71
2023-04-15T12:04:40.491Z,51.94
2023-04-15T12:06:46.187Z,52.30
2023-04-15T12:08:52.800Z,52.02
2023-04-15T12:11:04.688Z,51.55
2023-04-15T12:13:09.834Z,51.74
2023-04-15T12:15:14.852Z,51.71
2023-04-15T12:17:20.033Z,51.59
2023-04-15T12:19:30.350Z,51.04
2023-04-15T12:21:38.857Z,51.42
2023-04-15T12:23:51.677Z,51.44
2023-04-15T12:25:57.169Z,51.45
2023-04-15T12:28:04.720Z,51.31
2023-04-15T12:30:11.841Z,51.33
2023-04-15T12:32:20.010Z,51.50
2023-04-15T12:34:33.141Z,51.32
2023-04-15T12:36:39.003Z,51.53
2023-04-15T12:38:43.919Z,51.55
2023-04-15T12:40:50.470Z,51.46
2023-04-15T12:42:56.716Z,51.67
2023-04-15T12:45:04.068Z,52.20
2023-04-15T12:47:10.930Z,52.34
2023-04-15T12:49:20.056Z,52.27
2023-04-15T12:51:25.050Z,52.58
2023-04-15T12:53:31.316Z,52.42
2023-04-15T12:55:36.246Z,52.48
2023-04-15T12:57:40.999Z,52.58
2023-04-15T12:59:45.790Z,52.70
2023-04-15T13:01:54.005Z,52.77
2023-04-15T13:03:59.293Z,52.30
2023-04-15T13:06:05.123Z,52.65
2023-04-15T13:08:10.404Z,52.55
2023-04-15T13:10:15.227Z,52.55
2023-04-15T13:12:20.088Z,52.73
2023-04-15T13:14:24.881Z,52.42
2023-04-15T13:16:29.966Z,52.63
2023-04-15T13:18:37.656Z,52.24
2023-04-15T13:20:42.735Z,52.51
2023-04-15T13:22:47.484Z,52.22
2023-04-15T13:24:52.485Z,51.92
2023-04-15T13:26:59.397Z,51.92
2023-04-15T13:29:04.279Z,52.12
2023-04-15T13:31:09.513Z,51.90
2023-04-15T13:33:15.108Z,51.77
2023-04-15T13:35:22.640Z,51.71
2023-04-15T13:37:30.187Z,51.64
2023-04-15T13:39:34.944Z,51.48
2023-04-15T13:41:40.206Z,51.67
2023-04-15T13:43:45.166Z,51.65
2023-04-15T13:45:50.187Z,51.42
2023-04-15T13:47:55.136Z,51.71
2023-04-15T13:50:00.509Z,51.35
2023-04-15T13:52:07.861Z,51.27
2023-04-15T13:54:12.674Z,51.55
2023-04-15T13:56:17.575Z,50.91
2023-04-15T13:58:22.667Z,50.85
2023-04-15T14:00:27.477Z,50.90
2023-04-15T14:02:32.327Z,50.88
2023-04-15T14:04:37.197Z,50.76
2023-04-15T14:06:42.151Z,50.50
2023-04-15T14:08:49.856Z,50.50
2023-04-15T14:10:54.748Z,50.67
2023-04-15T14:12:59.552Z,50.66
2023-04-15T14:15:05.260Z,50.77
2023-04-15T14:17:10.584Z,50.60
2023-04-15T14:19:15.444Z,50.69
2023-04-15T14:21:20.240Z,50.68
2023-04-15T14:23:25.236Z,50.54
2023-04-15T14:25:34.108Z,50.23
2023-04-15T14:27:39.145Z,50.38
2023-04-15T14:29:43.899Z,49.96
2023-04-15T14:32:11.245Z,49.92
2023-04-15T14:34:14.131Z,49.94
2023-04-15T14:36:18.969Z,50.13
2023-04-15T14:38:23.821Z,49.78
2023-04-15T14:40:28.655Z,49.62
2023-04-15T14:42:36.312Z,49.63
2023-04-15T14:44:41.186Z,49.60
2023-04-15T14:46:46.082Z,49.76
2023-04-15T14:48:51.068Z,49.92
2023-04-15T14:50:56.443Z,49.81
2023-04-15T14:53:01.701Z,49.54
2023-04-15T14:55:06.742Z,49.81
2023-04-15T14:57:11.695Z,49.81
2023-04-15T14:59:19.089Z,49.82
2023-04-15T15:01:24.276Z,49.91
2023-04-15T15:03:29.195Z,49.80
2023-04-15T15:05:34.108Z,49.73
2023-04-15T15:07:39.635Z,49.66
2023-04-15T15:09:44.527Z,49.61
2023-04-15T15:11:49.323Z,49.83
2023-04-15T15:13:54.324Z,49.93
2023-04-15T15:16:01.933Z,49.69
2023-04-15T15:18:07.212Z,49.67
2023-04-15T15:20:13.051Z,49.83
2023-04-15T15:22:20.181Z,49.87
2023-04-15T15:24:26.364Z,49.46
2023-04-15T15:26:31.473Z,49.28
2023-04-15T15:28:37.018Z,49.63
2023-04-15T15:30:41.856Z,49.20
2023-04-15T15:32:49.395Z,49.10
2023-04-15T15:34:54.778Z,49.54
2023-04-15T15:37:00.062Z,49.23
2023-04-15T15:39:05.531Z,49.17
2023-04-15T15:41:10.671Z,49.44
2023-04-15T15:43:15.510Z,49.37
2023-04-15T15:45:20.539Z,49.22
2023-04-15T15:47:26.776Z,49.50
2023-04-15T15:49:34.655Z,49.62
2023-04-15T15:51:39.504Z,49.34
2023-04-15T15:53:44.897Z,49.21
2023-04-15T15:55:52.692Z,49.43
2023-04-15T15:57:58.443Z,49.21
2023-04-15T16:02:13.075Z,49.63
2023-04-15T16:04:18.593Z,49.71
2023-04-15T16:06:26.809Z,49.44
2023-04-15T16:08:31.679Z,49.32
2023-04-15T16:10:36.660Z,49.42
2023-04-15T16:12:41.643Z,49.62
2023-04-15T16:14:47.403Z,49.35
2023-04-15T16:16:52.287Z,49.40
2023-04-15T16:18:57.750Z,49.47
2023-04-15T16:21:02.565Z,49.77
2023-04-15T16:23:15.869Z,49.93
2023-04-15T16:25:20.875Z,49.85
2023-04-15T16:27:25.707Z,49.85
2023-04-15T16:29:31.408Z,49.60
2023-04-15T16:31:37.512Z,49.82
2023-04-15T16:33:42.369Z,50.06
2023-04-15T16:35:47.158Z,49.81
2023-04-15T16:37:52.032Z,50.00
2023-04-15T16:39:59.537Z,49.85
2023-04-15T16:42:05.072Z,49.92
2023-04-15T16:44:11.008Z,50.14
2023-04-15T16:46:15.955Z,49.88
2023-04-15T16:48:21.318Z,50.14
2023-04-15T16:50:26.168Z,50.26
2023-04-15T16:52:31.394Z,50.34
2023-04-15T16:54:41.438Z,50.04
2023-04-15T16:56:50.304Z,50.27
2023-04-15T16:58:55.094Z,50.56
2023-04-15T17:01:01.370Z,50.41
2023-04-15T17:03:06.721Z,50.33
2023-04-15T17:05:13.599Z,50.38
2023-04-15T17:07:18.387Z,50.67
2023-04-15T17:09:23.213Z,50.69
2023-04-15T17:11:28.020Z,50.45
2023-04-15T17:13:35.627Z,50.74
2023-04-15T17:15:40.956Z,50.71
2023-04-15T17:17:46.088Z,51.02
2023-04-15T17:19:51.083Z,50.82
2023-04-15T17:21:58.232Z,50.85
2023-04-15T17:24:03.057Z,50.93
2023-04-15T17:26:07.902Z,50.80
2023-04-15T17:28:12.827Z,51.13
2023-04-15T17:30:20.725Z,50.93
2023-04-15T17:32:26.492Z,50.82
2023-04-15T17:34:49.769Z,51.04
2023-04-15T17:36:56.049Z,51.23
2023-04-15T17:39:01.205Z,50.90
2023-04-15T17:41:07.895Z,51.04
2023-04-15T17:43:12.711Z,51.23
2023-04-15T17:45:20.589Z,51.30
2023-04-15T17:47:25.539Z,51.04
2023-04-15T17:49:31.282Z,51.47
2023-04-15T17:51:36.184Z,51.13
2023-04-15T17:53:47.564Z,51.21
2023-04-15T17:55:53.401Z,51.37
2023-04-15T17:57:58.198Z,51.48
2023-04-15T18:00:03.062Z,51.66
2023-04-15T18:02:20.408Z,51.72
2023-04-15T18:04:26.689Z,51.61
2023-04-15T18:06:32.037Z,51.56
2023-04-15T18:08:36.922Z,51.79
2023-04-15T18:10:42.349Z,51.69
2023-04-15T18:12:47.200Z,51.51
2023-04-15T18:14:51.981Z,51.94
2023-04-15T18:16:56.742Z,51.81
2023-04-15T18:19:04.464Z,51.85
2023-04-15T18:21:11.582Z,51.79
2023-04-15T18:23:17.817Z,52.06
2023-04-15T18:25:22.569Z,52.06
2023-04-15T18:27:27.397Z,52.19
2023-04-15T18:29:33.187Z,52.29
2023-04-15T18:31:38.037Z,52.08
2023-04-15T18:33:42.914Z,52.48
2023-04-15T18:35:50.549Z,52.23
2023-04-15T18:37:56.363Z,52.45
2023-04-15T18:40:01.795Z,52.20
2023-04-15T18:42:06.768Z,52.36
2023-04-15T18:44:12.436Z,52.61
2023-04-15T18:46:17.607Z,52.75
2023-04-15T18:48:22.439Z,52.74
2023-04-15T18:50:27.242Z,52.76
2023-04-15T18:52:34.625Z,52.70
2023-04-15T18:54:39.882Z,52.80
2023-04-15T18:56:44.769Z,52.77
2023-04-15T18:59:08.654Z,52.96
2023-04-15T19:01:14.506Z,53.16
2023-04-15T19:03:19.341Z,53.06
2023-04-15T19:05:24.176Z,53.35
2023-04-15T19:07:29.012Z,53.00
2023-04-15T19:09:36.495Z,53.16
2023-04-15T19:11:41.333Z,53.24
2023-04-15T19:13:46.107Z,53.52
2023-04-15T19:15:50.867Z,53.40
2023-04-15T19:17:55.793Z,53.69
2023-04-15T19:20:00.841Z,53.62
2023-04-15T19:22:06.040Z,53.79
2023-04-15T19:24:10.863Z,53.61
2023-04-15T19:26:18.476Z,53.88
2023-04-15T19:28:23.237Z,53.75
2023-04-15T19:30:28.828Z,53.77
2023-04-15T19:32:33.627Z,53.97
2023-04-15T19:34:38.595Z,53.80
2023-04-15T19:36:43.499Z,54.20
2023-04-15T19:38:48.274Z,53.83
2023-04-15T19:40:53.060Z,54.03
2023-04-15T19:43:00.479Z,54.46
2023-04-15T19:45:05.257Z,54.18
2023-04-15T19:47:10.149Z,54.20
2023-04-15T19:49:15.278Z,54.40
2023-04-15T19:51:20.404Z,54.17
2023-04-15T19:53:25.799Z,54.45
2023-04-15T19:55:30.666Z,54.54
2023-04-15T19:57:35.771Z,54.50
2023-04-15T19:59:43.395Z,54.77
2023-04-15T20:01:48.406Z,54.64
2023-04-15T20:03:55.637Z,54.63
2023-04-15T20:06:00.804Z,54.79
2023-04-15T20:08:05.824Z,54.84
2023-04-15T20:10:13.244Z,54.73
2023-04-15T20:12:50.432Z,54.97
2023-04-15T20:14:45.815Z,55.04
2023-04-15T20:16:50.733Z,54.78
2023-04-15T20:18:55.729Z,55.08
2023-04-15T20:21:00.807Z,54.93
2023-04-15T20:23:05.602Z,54.80
2023-04-15T20:25:11.557Z,54.74
2023-04-15T20:27:16.554Z,55.03
2023-04-15T20:29:21.406Z,54.98
2023-04-15T20:31:28.924Z,55.26
2023-04-15T20:33:33.820Z,55.23
2023-04-15T20:35:39.128Z,55.02
2023-04-15T20:37:46.580Z,55.04
2023-04-15T20:39:51.915Z,55.11
2023-04-15T20:41:56.754Z,55.17
2023-04-15T20:44:01.523Z,55.40
2023-04-15T20:46:17.850Z,55.34
2023-04-15T20:48:28.790Z,55.43
2023-04-15T20:50:33.736Z,55.14
2023-04-15T20:52:38.563Z,55.27
2023-04-15T20:54:43.517Z,55.53
2023-04-15T20:56:48.321Z,55.27
2023-04-15T20:58:53.128Z,55.47
2023-04-15T21:00:58.864Z,55.54
2023-04-15T21:03:03.958Z,55.27
2023-04-15T21:05:12.213Z,55.61
2023-04-15T21:07:17.092Z,55.45
2023-04-15T21:09:21.933Z,55.20
2023-04-15T21:11:49.412Z,55.64
2023-04-15T21:13:51.738Z,55.50
2023-04-15T21:15:56.682Z,55.57
2023-04-15T21:18:01.606Z,55.39
2023-04-15T21:20:07.976Z,55.56
2023-04-15T21:22:15.472Z,55.66
2023-04-15T21:24:20.342Z,55.34
2023-04-15T21:26:25.105Z,55.51
2023-04-15T21:28:30.752Z,55.28
2023-04-15T21:30:35.575Z,55.49
2023-04-15T21:32:40.640Z,55.57
2023-04-15T21:34:45.426Z,55.52
2023-04-15T21:36:50.221Z,55.55
2023-04-15T21:38:57.814Z,55.68
2023-04-15T21:41:06.670Z,55.67
2023-04-15T21:43:11.992Z,55.51
2023-04-15T21:45:17.022Z,55.66
2023-04-15T21:47:21.886Z,55.53
2023-04-15T21:49:26.791Z,55.50
2023-04-15T21:51:31.693Z,55.80
2023-04-15T21:53:36.521Z,55.60
2023-04-15T21:55:43.964Z,55.66
2023-04-15T21:57:48.785Z,55.78
2023-04-15T21:59:53.557Z,55.99
2023-04-15T22:01:58.712Z,55.89
2023-04-15T22:04:03.654Z,56.08
2023-04-15T22:06:08.566Z,55.72
2023-04-15T22:08:13.553Z,56.02
2023-04-15T22:10:19.624Z,56.04
2023-04-15T22:12:27.019Z,56.27
2023-04-15T22:14:32.958Z,56.18
2023-04-15T22:16:37.804Z,56.26
2023-04-15T22:18:42.790Z,56.01
2023-04-15T22:20:47.748Z,55.98
2023-04-15T22:22:54.274Z,56.04
2023-04-15T22:24:59.330Z,56.34
2023-04-15T22:27:04.127Z,56.20
2023-04-15T22:29:11.487Z,56.37
2023-04-15T22:31:16.589Z,56.47
2023-04-15T22:33:21.437Z,56.44
2023-04-15T22:35:26.345Z,56.35
2023-04-15T22:37:31.691Z,56.71
2023-04-15T22:39:36.569Z,56.66
2023-04-15T22:41:41.355Z,56.59
2023-04-15T22:43:46.337Z,56.92
2023-04-15T22:45:55.519Z,57.01
2023-04-15T22:48:00.733Z,56.97
2023-04-15T22:50:05.638Z,56.69
2023-04-15T22:52:17.175Z,57.02
2023-04-15T22:54:28.485Z,56.79
2023-04-15T22:56:33.357Z,56.88
2023-04-15T22:58:38.197Z,56.90
2023-04-15T23:00:43.337Z,56.88
2023-04-15T23:02:50.865Z,57.29
2023-04-15T23:04:55.823Z,56.83
2023-04-15T23:07:00.682Z,56.90
2023-04-15T23:09:05.629Z,56.91
2023-04-15T23:11:11.218Z,56.89
2023-04-15T23:13:16.035Z,57.12
2023-04-15T23:15:20.865Z,57.03
2023-04-15T23:17:26.815Z,57.06
2023-04-15T23:19:34.240Z,56.95
2023-04-15T23:21:39.062Z,57.22
2023-04-15T23:23:43.879Z,56.91
2023-04-15T23:25:49.401Z,57.26
2023-04-15T23:27:54.191Z,57.32
2023-04-15T23:29:59.065Z,57.24
2023-04-15T23:32:03.911Z,57.21
2023-04-15T23:34:08.823Z,57.38
2023-04-15T23:36:16.368Z,57.34
2023-04-15T23:38:21.184Z,57.16
2023-04-15T23:40:25.980Z,57.07
2023-04-15T23:42:30.829Z,57.27
2023-04-15T23:44:35.596Z,57.44
2023-04-15T23:46:40.500Z,57.30
2023-04-15T23:48:45.348Z,57.03
2023-04-15T23:50:50.453Z,57.21
2023-04-15T23:52:58.011Z,57.37
2023-04-15T23:55:03.038Z,57.33
2023-04-15T23:57:07.809Z,57.23
2023-04-15T23:59:12.697Z,57.35
